Time;durP1;ratioP1;P1;durP2;ratioP2;P2;SDS_P1;SDS_P2;PMS_P1;PMS_P2;Temp;Humidity;BMP_temperature;BMP_pressure;BME280_temperature;BME280_humidity;BME280_pressure;Samples;Min_cycle;Max_cycle;Signal;HPM_P1;HPM_P2
2022/09/10 00:01:21;;;;;;;2.80;2.00;;;;;;;33.26;26.72;97920.59;5040312;28;20033;-78
2022/09/10 00:03:48;;;;;;;6.13;2.00;;;;;;;33.58;25.87;97912.94;5037908;28;20505;-78
2022/09/10 00:06:17;;;;;;;3.17;2.67;;;;;;;33.89;25.77;97919.41;5043258;28;20060;-78
2022/09/10 00:08:44;;;;;;;4.28;2.10;;;;;;;34.08;24.81;97919.84;5041557;28;20049;-78
2022/09/10 00:11:11;;;;;;;2.67;1.55;;;;;;;33.83;24.97;97912.91;5043500;28;20029;-78
2022/09/10 00:13:39;;;;;;;3.65;1.80;;;;;;;33.27;25.76;97910.78;5040714;28;20124;-78
2022/09/10 00:16:10;;;;;;;1.70;1.60;;;;;;;32.91;26.59;97914.97;5043629;28;20033;-78
2022/09/10 00:18:39;;;;;;;3.30;2.38;;;;;;;32.37;28.42;97910.13;5045613;28;20108;-78
2022/09/10 00:21:08;;;;;;;2.67;2.33;;;;;;;31.48;29.48;97910.69;5044505;28;20087;-78
2022/09/10 00:23:34;;;;;;;4.35;2.70;;;;;;;31.82;29.17;97905.09;5046512;28;20040;-78
2022/09/10 00:26:20;;;;;;;3.45;2.72;;;;;;;31.65;29.37;97909.72;5046857;28;20482;-78
2022/09/10 00:28:48;;;;;;;4.82;3.45;;;;;;;31.38;30.11;97907.13;5039437;28;20048;-78
2022/09/10 00:31:15;;;;;;;2.78;2.58;;;;;;;31.22;30.28;97913.28;5046462;28;20117;-78
2022/09/10 00:33:41;;;;;;;2.35;1.95;;;;;;;31.78;29.33;97901.69;5046600;28;20037;-78
2022/09/10 00:36:20;;;;;;;3.78;3.05;;;;;;;32.31;28.86;97900.72;5045427;28;20033;-78
2022/09/10 00:38:49;;;;;;;3.38;2.97;;;;;;;32.31;28.39;97909.22;5043428;28;20528;-78
2022/09/10 00:41:17;;;;;;;3.03;2.72;;;;;;;32.57;28.21;97901.63;5044815;28;20132;-78
2022/09/10 00:43:49;;;;;;;5.10;3.22;;;;;;;32.96;27.64;97900.06;5036329;28;20120;-78
2022/09/10 00:46:47;;;;;;;5.63;3.30;;;;;;;33.04;28.00;97897.59;5035183;28;20052;-78
2022/09/10 00:49:22;;;;;;;5.05;3.85;;;;;;;32.82;27.95;97903.75;5031625;28;20132;-78
2022/09/10 00:51:52;;;;;;;4.00;3.35;;;;;;;32.32;28.35;97903.06;5028263;28;20034;-78
2022/09/10 00:54:22;;;;;;;3.53;3.22;;;;;;;31.12;30.69;97911.81;5033015;28;20625;-78
2022/09/10 00:56:51;;;;;;;4.22;3.83;;;;;;;31.27;30.56;97898.44;5034774;28;20056;-78
2022/09/10 00:59:19;;;;;;;4.80;4.25;;;;;;;30.30;32.39;97898.16;5033182;28;20080;-78
2022/09/10 01:01:46;;;;;;;5.32;4.38;;;;;;;30.77;31.36;97895.38;5034001;28;20033;-78
2022/09/10 01:04:13;;;;;;;6.55;5.30;;;;;;;31.41;30.13;97906.19;5034321;28;20033;-78
2022/09/10 01:06:40;;;;;;;9.18;6.38;;;;;;;32.32;29.01;97908.75;5034684;28;20038;-78
2022/09/10 01:09:08;;;;;;;6.10;4.88;;;;;;;32.85;28.15;97919.84;5034409;28;20029;-78
2022/09/10 01:11:44;;;;;;;6.07;5.28;;;;;;;33.21;27.27;97924.94;5033963;28;20034;-78
2022/09/10 01:14:42;;;;;;;7.18;5.03;;;;;;;33.49;27.22;97933.00;5033867;28;20037;-78
2022/09/10 01:17:26;;;;;;;7.47;6.45;;;;;;;33.62;27.09;97936.25;5028956;28;20383;-78
2022/09/10 01:20:42;;;;;;;5.53;4.47;;;;;;;33.32;27.08;97932.84;5033364;28;20036;-78
2022/09/10 01:23:26;;;;;;;5.80;4.28;;;;;;;33.31;27.27;97932.03;5034521;28;20119;-78
2022/09/10 01:26:20;;;;;;;5.95;4.43;;;;;;;33.75;26.53;97925.28;5038324;28;20052;-78
2022/09/10 01:29:12;;;;;;;4.10;3.63;;;;;;;33.83;26.83;97929.22;5022352;28;20045;-78
2022/09/10 01:31:49;;;;;;;4.15;3.70;;;;;;;33.93;26.36;97933.44;5027262;28;20029;-78
2022/09/10 01:34:34;;;;;;;3.00;2.72;;;;;;;34.21;26.05;97928.78;5024350;28;20034;-78
2022/09/10 01:37:11;;;;;;;3.25;2.95;;;;;;;34.37;25.74;97922.41;5031181;28;20449;-78
2022/09/10 01:39:38;;;;;;;3.00;2.60;;;;;;;34.52;25.43;97917.34;5028453;28;20044;-78
2022/09/10 01:42:05;;;;;;;5.00;3.13;;;;;;;34.60;25.28;97920.50;5028514;28;20042;-78
2022/09/10 01:44:46;;;;;;;4.00;2.45;;;;;;;34.09;26.18;97921.44;5025037;28;20498;-78
2022/09/10 01:47:38;;;;;;;2.90;2.60;;;;;;;34.02;26.16;97919.00;5029872;28;20025;-78
2022/09/10 01:50:13;;;;;;;2.55;2.35;;;;;;;34.06;26.24;97919.59;5025393;28;20084;-78
2022/09/10 01:53:07;;;;;;;3.10;2.78;;;;;;;33.39;27.21;97913.25;5025963;28;20033;-78
2022/09/10 01:56:04;;;;;;;3.10;2.80;;;;;;;33.25;27.49;97902.75;5021986;28;20401;-78
2022/09/10 01:58:29;;;;;;;2.63;2.40;;;;;;;33.57;26.41;97911.38;5041496;28;20039;-78
2022/09/10 02:01:33;;;;;;;2.65;2.45;;;;;;;33.90;26.38;97905.97;5028408;28;20025;-78
2022/09/10 02:04:05;;;;;;;3.85;3.35;;;;;;;34.20;25.86;97900.78;5025144;28;20041;-78
2022/09/10 02:06:37;;;;;;;2.97;2.53;;;;;;;34.11;25.72;97898.91;5021917;28;20053;-78
2022/09/10 02:09:04;;;;;;;4.22;2.50;;;;;;;33.81;25.89;97901.25;5021643;28;20029;-78
2022/09/10 02:11:41;;;;;;;4.22;2.47;;;;;;;33.94;25.68;97897.97;5021615;28;20058;-78
2022/09/10 02:14:07;;;;;;;5.05;2.97;;;;;;;33.86;25.65;97891.19;5023644;28;20081;-78
2022/09/10 02:16:37;;;;;;;2.97;2.67;;;;;;;32.90;27.93;97895.59;5021071;28;20512;-78
2022/09/10 02:19:03;;;;;;;3.00;2.80;;;;;;;31.53;29.48;97885.25;5022640;28;20040;-78
2022/09/10 02:21:30;;;;;;;4.32;2.33;;;;;;;31.95;29.21;97882.09;5022022;28;21334;-78
2022/09/10 02:24:04;;;;;;;3.03;2.65;;;;;;;32.57;28.00;97876.03;5018468;28;20033;-78
2022/09/10 02:26:37;;;;;;;4.88;3.40;;;;;;;33.18;26.86;97871.88;5018828;28;20167;-78
2022/09/10 02:29:03;;;;;;;2.90;2.70;;;;;;;33.64;26.20;97871.03;5031906;28;20025;-78
2022/09/10 02:31:29;;;;;;;4.07;3.53;;;;;;;33.84;26.02;97870.97;5029996;28;20080;-78
2022/09/10 02:33:55;;;;;;;4.18;3.08;;;;;;;34.05;26.04;97858.97;5028110;28;20021;-78
2022/09/10 02:36:24;;;;;;;3.17;2.88;;;;;;;33.51;26.90;97857.19;5024900;28;20124;-78
2022/09/10 02:38:51;;;;;;;3.15;2.85;;;;;;;32.26;28.36;97853.09;5025880;28;20479;-78
2022/09/10 02:41:17;;;;;;;3.78;3.08;;;;;;;32.03;29.02;97857.69;5028023;28;20029;-78
2022/09/10 02:43:45;;;;;;;5.25;3.53;;;;;;;32.26;28.76;97859.56;5021309;28;20099;-78
2022/09/10 02:46:12;;;;;;;3.10;2.65;;;;;;;32.98;27.27;97869.03;5025154;28;20120;-78
2022/09/10 02:48:38;;;;;;;4.78;3.28;;;;;;;33.58;26.76;97859.63;5023123;28;20032;-78
2022/09/10 02:51:05;;;;;;;3.08;2.75;;;;;;;33.98;26.26;97850.84;5027861;28;20040;-78
2022/09/10 02:53:31;;;;;;;4.20;2.65;;;;;;;34.25;25.60;97855.22;5022483;28;20143;-78
2022/09/10 02:55:57;;;;;;;3.53;2.65;;;;;;;34.38;25.57;97851.91;5020595;28;20037;-78
2022/09/10 02:58:24;;;;;;;3.60;2.50;;;;;;;34.43;25.22;97857.63;5025546;28;20120;-78
2022/09/10 03:00:50;;;;;;;5.55;3.10;;;;;;;34.49;25.03;97861.31;5022547;28;20069;-78
2022/09/10 03:03:16;;;;;;;6.53;2.60;;;;;;;34.44;25.57;97869.81;5027453;28;20072;-78
2022/09/10 03:05:42;;;;;;;3.47;3.17;;;;;;;34.24;25.81;97867.13;5023837;28;20401;-78
2022/09/10 03:08:09;;;;;;;3.40;3.10;;;;;;;33.27;27.05;97871.72;5028187;28;20034;-78
2022/09/10 03:10:37;;;;;;;2.97;2.55;;;;;;;32.66;27.64;97876.69;5024592;28;20385;-78
2022/09/10 03:13:03;;;;;;;2.75;2.40;;;;;;;32.67;27.86;97874.63;5026803;28;20441;-78
2022/09/10 03:15:29;;;;;;;4.22;2.53;;;;;;;33.10;26.84;97873.59;5023008;28;20051;-78
2022/09/10 03:17:55;;;;;;;4.72;3.25;;;;;;;33.56;26.08;97869.94;5027760;28;20457;-78
2022/09/10 03:20:21;;;;;;;5.82;2.92;;;;;;;33.65;26.10;97876.25;5025734;28;20578;-78
2022/09/10 03:22:50;;;;;;;2.78;2.58;;;;;;;33.98;25.87;97878.59;5025960;28;20590;-78
2022/09/10 03:25:17;;;;;;;2.92;2.60;;;;;;;34.15;25.81;97873.78;5023511;28;20027;-78
2022/09/10 03:27:43;;;;;;;3.22;2.92;;;;;;;34.03;26.06;97877.84;5024030;28;20038;-78
2022/09/10 03:30:10;;;;;;;2.75;2.53;;;;;;;33.87;26.64;97865.03;5026102;28;20025;-78
2022/09/10 03:32:36;;;;;;;2.63;2.40;;;;;;;33.89;26.55;97868.13;5025667;28;20029;-78
2022/09/10 03:35:02;;;;;;;4.10;2.97;;;;;;;33.90;26.28;97854.69;5029375;28;20037;-78
2022/09/10 03:37:30;;;;;;;5.25;2.80;;;;;;;33.97;26.29;97855.00;5027653;28;20025;-77
2022/09/10 03:39:57;;;;;;;5.57;3.05;;;;;;;33.88;26.47;97862.97;5027558;28;20030;-77
2022/09/10 03:42:23;;;;;;;3.00;2.70;;;;;;;33.70;26.45;97861.25;5026167;28;20045;-78
2022/09/10 03:44:49;;;;;;;3.28;2.97;;;;;;;33.67;26.56;97855.81;5025191;28;20037;-77
2022/09/10 03:47:16;;;;;;;3.08;2.70;;;;;;;33.42;27.06;97857.38;5026855;28;20083;-78
2022/09/10 03:49:42;;;;;;;4.63;3.13;;;;;;;33.59;26.69;97855.47;5022776;28;20095;-78
2022/09/10 03:52:11;;;;;;;4.15;2.90;;;;;;;33.67;26.36;97858.66;5022748;28;20038;-77
2022/09/10 03:54:38;;;;;;;3.58;3.25;;;;;;;33.68;26.27;97857.38;5025224;28;20128;-77
2022/09/10 03:57:04;;;;;;;5.18;3.58;;;;;;;33.58;26.41;97858.84;5026702;28;20026;-78
2022/09/10 03:59:31;;;;;;;5.10;3.03;;;;;;;33.62;26.33;97862.22;5024978;28;20042;-78
2022/09/10 04:01:57;;;;;;;4.28;3.13;;;;;;;33.65;26.47;97861.22;5039355;28;20041;-78
2022/09/10 04:04:23;;;;;;;5.78;2.80;;;;;;;33.48;26.77;97855.34;5024485;28;20100;-78
2022/09/10 04:06:52;;;;;;;3.65;2.72;;;;;;;33.54;27.01;97855.44;5025176;28;20498;-77
2022/09/10 04:09:18;;;;;;;5.00;3.22;;;;;;;33.71;26.35;97848.59;5026396;28;20109;-78
2022/09/10 04:11:44;;;;;;;4.30;3.10;;;;;;;33.89;26.06;97853.91;5025022;28;20092;-78
2022/09/10 04:14:10;;;;;;;3.15;2.92;;;;;;;34.07;26.25;97852.78;5026160;28;20037;-78
2022/09/10 04:16:37;;;;;;;5.03;3.88;;;;;;;34.24;26.24;97855.72;5027354;28;20109;-78
2022/09/10 04:19:03;;;;;;;4.35;2.90;;;;;;;34.37;25.92;97864.59;5037364;28;20430;-78
2022/09/10 04:21:30;;;;;;;5.50;3.50;;;;;;;34.47;25.75;97861.00;5026076;28;20153;-78
2022/09/10 04:23:59;;;;;;;3.55;2.53;;;;;;;34.43;25.73;97860.47;5029883;28;20120;-78
2022/09/10 04:26:25;;;;;;;4.85;2.50;;;;;;;34.39;25.83;97857.09;5030228;28;20084;-78
2022/09/10 04:28:52;;;;;;;2.78;2.58;;;;;;;34.04;26.47;97843.16;5033144;28;20052;-78
2022/09/10 04:31:18;;;;;;;4.15;3.05;;;;;;;34.01;26.31;97837.66;5030441;28;20097;-78
2022/09/10 04:33:44;;;;;;;4.10;3.28;;;;;;;34.12;26.10;97837.78;5033226;28;20402;-78
2022/09/10 04:36:14;;;;;;;3.92;2.80;;;;;;;34.38;25.65;97846.22;5033831;28;20380;-78
2022/09/10 04:38:40;;;;;;;3.20;2.90;;;;;;;34.56;25.60;97840.91;5028861;28;20068;-79
2022/09/10 04:41:08;;;;;;;4.95;3.00;;;;;;;34.64;25.30;97844.00;5030695;28;20021;-78
2022/09/10 04:43:35;;;;;;;3.97;2.75;;;;;;;34.42;25.83;97844.69;5028524;28;20196;-77
2022/09/10 04:46:01;;;;;;;3.45;3.15;;;;;;;33.84;26.83;97845.31;5027982;28;20036;-78
2022/09/10 04:48:27;;;;;;;3.95;2.40;;;;;;;33.29;27.48;97851.28;5028528;28;20087;-78
2022/09/10 04:50:54;;;;;;;4.60;2.78;;;;;;;33.15;27.51;97844.44;5027148;28;20487;-77
2022/09/10 04:53:20;;;;;;;4.47;3.75;;;;;;;33.42;27.13;97832.50;5030015;28;20083;-77
2022/09/10 04:55:48;;;;;;;3.08;2.78;;;;;;;33.76;26.50;97838.53;5029327;28;20445;-77
2022/09/10 04:58:14;;;;;;;4.88;3.58;;;;;;;34.01;26.20;97834.81;5028413;28;20037;-77
2022/09/10 05:00:41;;;;;;;4.15;3.53;;;;;;;34.11;26.03;97835.41;5026157;28;20029;-78
2022/09/10 05:03:07;;;;;;;3.28;2.97;;;;;;;33.09;28.19;97835.06;5028631;28;20053;-78
2022/09/10 05:05:33;;;;;;;6.07;3.10;;;;;;;33.49;27.33;97830.50;5028110;28;20118;-77
2022/09/10 05:08:00;;;;;;;4.47;3.65;;;;;;;33.46;27.19;97831.50;5029267;28;20097;-77
2022/09/10 05:10:26;;;;;;;5.65;3.50;;;;;;;33.38;27.50;97817.75;5026538;28;20028;-77
2022/09/10 05:12:53;;;;;;;4.10;3.30;;;;;;;33.36;27.55;97830.91;5027107;28;20084;-77
2022/09/10 05:15:19;;;;;;;4.07;3.63;;;;;;;33.37;27.72;97821.09;5025733;28;20029;-78
2022/09/10 05:17:46;;;;;;;3.22;2.92;;;;;;;33.53;27.31;97820.50;5027369;28;20498;-78
2022/09/10 05:20:13;;;;;;;4.05;3.10;;;;;;;33.99;26.96;97817.44;5029222;28;20028;-77
2022/09/10 05:22:41;;;;;;;4.65;3.80;;;;;;;34.35;26.42;97818.72;5028235;28;20542;-77
2022/09/10 05:25:08;;;;;;;5.65;2.97;;;;;;;34.54;26.15;97817.78;5030932;28;20036;-79
2022/09/10 05:27:35;;;;;;;3.65;3.30;;;;;;;34.48;26.21;97819.03;5028792;28;20025;-78
2022/09/10 05:30:01;;;;;;;4.43;3.75;;;;;;;34.57;25.91;97816.78;5028322;28;20022;-78
2022/09/10 05:32:28;;;;;;;5.72;3.65;;;;;;;34.62;25.96;97827.44;5027934;28;20075;-78
2022/09/10 05:34:54;;;;;;;4.63;3.47;;;;;;;34.73;25.79;97821.75;5029106;28;20498;-77
2022/09/10 05:37:21;;;;;;;4.88;3.83;;;;;;;34.82;25.69;97823.63;5026583;28;20022;-78
2022/09/10 05:39:47;;;;;;;5.63;4.07;;;;;;;34.75;25.70;97815.56;5029270;28;20025;-78
2022/09/10 05:42:13;;;;;;;5.88;3.80;;;;;;;34.70;25.96;97817.06;5038467;28;20052;-78
2022/09/10 05:44:40;;;;;;;5.07;4.55;;;;;;;34.62;25.75;97815.22;5024811;28;20037;-77
2022/09/10 05:47:06;;;;;;;8.00;5.88;;;;;;;34.58;26.07;97823.25;5026838;28;20029;-77
2022/09/10 05:49:33;;;;;;;7.03;6.28;;;;;;;34.25;26.58;97821.00;5025526;28;20038;-78
2022/09/10 05:51:59;;;;;;;7.38;6.60;;;;;;;33.81;27.07;97824.34;5028779;28;20029;-78
2022/09/10 05:54:25;;;;;;;8.25;5.88;;;;;;;33.73;27.13;97820.38;5030620;28;20091;-77
2022/09/10 05:56:52;;;;;;;10.02;7.28;;;;;;;32.93;28.22;97829.94;5022759;28;20097;-78
2022/09/10 05:59:19;;;;;;;7.60;6.80;;;;;;;32.65;28.89;97823.16;5026559;28;20547;-78
2022/09/10 06:01:45;;;;;;;8.48;6.10;;;;;;;32.62;29.03;97818.47;5027826;28;20113;-77
2022/09/10 06:04:12;;;;;;;8.80;6.88;;;;;;;32.67;28.99;97812.06;5027743;28;20394;-77
2022/09/10 06:06:38;;;;;;;9.25;8.15;;;;;;;32.19;29.19;97802.38;5027529;28;20139;-77
2022/09/10 06:09:04;;;;;;;11.00;9.05;;;;;;;31.82;29.97;97802.88;5028736;28;20029;-77
2022/09/10 06:11:30;;;;;;;10.38;7.75;;;;;;;31.78;30.35;97798.69;5029044;28;20070;-78
2022/09/10 06:13:56;;;;;;;8.25;7.10;;;;;;;32.58;29.03;97812.22;5026459;28;20475;-78
2022/09/10 06:16:22;;;;;;;13.20;8.40;;;;;;;32.42;29.06;97804.22;5026594;28;20068;-78
2022/09/10 06:18:49;;;;;;;9.73;6.82;;;;;;;32.63;28.94;97815.13;5030808;28;20499;-78
2022/09/10 06:21:17;;;;;;;8.02;6.60;;;;;;;32.99;28.41;97815.78;5027781;28;20022;-78
2022/09/10 06:23:44;;;;;;;10.20;7.43;;;;;;;33.21;27.74;97816.78;5029133;28;20613;-78
2022/09/10 06:26:16;;;;;;;6.45;5.32;;;;;;;33.38;27.50;97814.09;5030040;28;20030;-78
2022/09/10 06:28:43;;;;;;;6.55;5.72;;;;;;;32.51;28.73;97816.25;5027347;28;20036;-78
2022/09/10 06:31:13;;;;;;;6.38;5.38;;;;;;;32.72;28.67;97820.66;5029562;28;20033;-78
2022/09/10 06:33:39;;;;;;;7.85;5.60;;;;;;;33.11;28.25;97820.31;5020830;28;20065;-78
2022/09/10 06:36:05;;;;;;;5.50;4.85;;;;;;;33.50;27.54;97814.97;5028706;28;20037;-78
2022/09/10 06:38:32;;;;;;;5.28;4.20;;;;;;;33.65;27.34;97815.66;5030914;28;20398;-78
2022/09/10 06:41:00;;;;;;;5.03;4.53;;;;;;;33.97;27.16;97814.31;5026169;28;20032;-78
2022/09/10 06:43:30;;;;;;;3.53;3.22;;;;;;;34.20;26.50;97818.91;5031870;28;20426;-78
2022/09/10 06:45:56;;;;;;;4.10;2.97;;;;;;;34.12;26.51;97817.84;5032713;28;20548;-78
2022/09/10 06:48:26;;;;;;;3.50;3.20;;;;;;;34.26;26.64;97818.94;5019462;28;20033;-78
2022/09/10 06:50:57;;;;;;;3.25;2.92;;;;;;;34.31;26.55;97816.09;5032672;28;20029;-79
2022/09/10 06:53:27;;;;;;;3.40;2.83;;;;;;;34.45;26.11;97817.22;5034976;28;20037;-78
2022/09/10 06:55:54;;;;;;;2.63;2.43;;;;;;;34.34;26.10;97820.00;5019139;28;20041;-78
2022/09/10 06:58:23;;;;;;;5.25;3.42;;;;;;;34.35;26.09;97819.50;5027577;28;20283;-78
2022/09/10 07:00:50;;;;;;;3.47;3.17;;;;;;;34.34;26.18;97817.94;5030773;28;20091;-78
2022/09/10 07:03:18;;;;;;;3.85;3.10;;;;;;;34.26;26.20;97825.41;5026050;28;20120;-78
2022/09/10 07:05:45;;;;;;;4.70;3.40;;;;;;;34.01;26.59;97823.41;5029923;28;20108;-78
2022/09/10 07:08:21;;;;;;;4.07;3.47;;;;;;;33.69;26.92;97833.28;5028365;28;20105;-78
2022/09/10 07:10:47;;;;;;;3.30;3.00;;;;;;;33.69;27.21;97825.53;5028585;28;20077;-78
2022/09/10 07:13:13;;;;;;;4.95;2.92;;;;;;;33.76;26.87;97824.28;5031059;28;20033;-78
2022/09/10 07:15:45;;;;;;;3.78;2.55;;;;;;;33.66;27.09;97825.75;5023777;28;20025;-78
2022/09/10 07:18:15;;;;;;;3.75;3.00;;;;;;;33.71;26.92;97822.16;5028430;28;20112;-78
2022/09/10 07:20:45;;;;;;;2.70;2.40;;;;;;;33.79;27.12;97826.91;5022406;28;20151;-79
2022/09/10 07:23:17;;;;;;;3.60;3.30;;;;;;;34.06;26.27;97831.25;5023699;28;20097;-79
2022/09/10 07:25:43;;;;;;;3.58;3.28;;;;;;;33.98;26.70;97827.31;5030001;28;20029;-79
2022/09/10 07:28:13;;;;;;;2.63;2.42;;;;;;;33.91;26.38;97831.38;5028413;28;20026;-80
2022/09/10 07:30:41;;;;;;;3.08;2.83;;;;;;;33.47;27.27;97825.31;5026457;28;20552;-78
2022/09/10 07:33:07;;;;;;;2.50;2.30;;;;;;;33.19;27.76;97833.59;5024391;28;20046;-79
2022/09/10 07:35:35;;;;;;;2.75;2.47;;;;;;;33.30;27.72;97835.78;5027116;28;20034;-79
2022/09/10 07:38:02;;;;;;;3.25;2.72;;;;;;;33.16;27.47;97840.31;5028385;28;20034;-79
2022/09/10 07:40:28;;;;;;;3.15;2.88;;;;;;;32.83;28.13;97837.06;5022854;28;20030;-79
2022/09/10 07:42:55;;;;;;;4.30;3.40;;;;;;;32.84;28.04;97832.19;5027878;28;20128;-79
2022/09/10 07:45:21;;;;;;;5.13;3.83;;;;;;;32.81;28.33;97833.16;5023897;28;20155;-79
2022/09/10 07:47:48;;;;;;;4.10;2.90;;;;;;;32.58;28.57;97832.88;5025598;28;20025;-78
2022/09/10 07:50:15;;;;;;;2.70;2.50;;;;;;;32.89;28.44;97835.06;5026783;28;20029;-79
2022/09/10 07:52:41;;;;;;;3.15;2.58;;;;;;;32.87;28.27;97831.94;5032009;28;20044;-79
2022/09/10 07:55:08;;;;;;;2.78;2.58;;;;;;;32.68;28.49;97831.47;5021593;28;20033;-79
2022/09/10 07:57:36;;;;;;;2.03;1.92;;;;;;;32.38;29.77;97829.25;5020807;28;20138;-79
2022/09/10 08:00:13;;;;;;;3.00;2.70;;;;;;;32.30;29.94;97831.72;5019437;28;20088;-78
2022/09/10 08:02:41;;;;;;;2.63;2.20;;;;;;;32.69;29.35;97835.09;5023554;28;20033;-79
2022/09/10 08:05:09;;;;;;;2.53;2.33;;;;;;;32.79;29.09;97838.56;5033038;28;20113;-79
2022/09/10 08:07:36;;;;;;;3.25;2.95;;;;;;;33.05;28.74;97842.25;5030742;28;20026;-79
2022/09/10 08:10:04;;;;;;;2.08;1.88;;;;;;;33.02;28.74;97841.19;5034223;28;20067;-79
2022/09/10 08:12:32;;;;;;;2.65;2.42;;;;;;;32.88;28.44;97847.75;5031055;28;20398;-79
2022/09/10 08:14:58;;;;;;;2.40;2.20;;;;;;;33.04;28.26;97844.31;5030252;28;20529;-80
2022/09/10 08:17:25;;;;;;;1.75;1.60;;;;;;;32.90;28.78;97844.38;5031496;28;20053;-79
2022/09/10 08:19:51;;;;;;;4.07;1.80;;;;;;;32.63;28.94;97842.75;5027968;28;20880;-79
2022/09/10 08:22:19;;;;;;;2.15;1.95;;;;;;;32.91;28.80;97845.97;5028592;28;20033;-79
2022/09/10 08:24:46;;;;;;;1.92;1.60;;;;;;;32.86;29.34;97853.13;5027060;28;20038;-80
2022/09/10 08:27:13;;;;;;;3.20;1.75;;;;;;;32.69;29.16;97840.78;5029958;28;20443;-78
2022/09/10 08:29:39;;;;;;;1.80;1.70;;;;;;;32.86;29.15;97847.44;5032983;28;20409;-78
2022/09/10 08:32:06;;;;;;;2.45;2.20;;;;;;;33.34;28.89;97842.03;5025412;28;20033;-78
2022/09/10 08:34:33;;;;;;;1.98;1.45;;;;;;;33.10;28.69;97839.47;5028801;28;20034;-78
2022/09/10 08:36:59;;;;;;;1.58;1.48;;;;;;;32.94;29.31;97834.34;5028260;28;20044;-78
2022/09/10 08:39:26;;;;;;;2.00;1.85;;;;;;;33.18;29.20;97840.59;5025440;28;20096;-79
2022/09/10 08:42:17;;;;;;;2.20;1.80;;;;;;;33.70;28.67;97840.56;5031381;28;20041;-79
2022/09/10 08:44:51;;;;;;;1.50;1.20;;;;;;;33.59;28.15;97834.75;5027096;28;20053;-78
2022/09/10 08:48:11;;;;;;;2.42;1.90;;;;;;;33.09;28.89;97837.13;5030248;28;20932;-79
2022/09/10 08:50:51;;;;;;;1.75;1.45;;;;;;;33.48;28.71;97834.63;5042626;28;20040;-78
2022/09/10 08:53:24;;;;;;;2.20;1.50;;;;;;;33.72;28.53;97833.06;5040878;28;20044;-78
2022/09/10 08:55:56;;;;;;;1.50;1.40;;;;;;;33.87;28.14;97833.69;5033885;28;20102;-78
2022/09/10 08:58:38;;;;;;;1.40;1.30;;;;;;;34.24;28.35;97827.97;5030092;28;20033;-79
2022/09/10 09:01:05;;;;;;;1.70;1.60;;;;;;;34.19;27.45;97845.06;5030414;28;20121;-78
2022/09/10 09:03:44;;;;;;;1.95;1.80;;;;;;;34.04;27.90;97837.47;5029737;28;20078;-80
2022/09/10 09:06:33;;;;;;;1.73;1.63;;;;;;;34.17;27.43;97833.41;5024051;28;20038;-80
2022/09/10 09:09:00;;;;;;;1.80;1.70;;;;;;;34.20;27.52;97838.84;5033051;28;20094;-79
2022/09/10 09:11:32;;;;;;;2.10;1.90;;;;;;;33.81;28.07;97837.78;5026777;28;20034;-79
2022/09/10 09:14:20;;;;;;;2.17;2.00;;;;;;;34.31;28.28;97833.19;5029966;28;20091;-79
2022/09/10 09:17:20;;;;;;;1.60;1.50;;;;;;;34.56;27.34;97831.56;5028400;28;20402;-79
2022/09/10 09:20:17;;;;;;;3.50;1.65;;;;;;;34.36;27.34;97837.38;5045043;28;20045;-79
2022/09/10 09:22:54;;;;;;;1.27;1.25;;;;;;;34.20;28.19;97838.06;5028021;28;20048;-79
2022/09/10 09:25:30;;;;;;;1.50;1.40;;;;;;;34.09;27.85;97841.63;5026985;28;20039;-79
2022/09/10 09:27:57;;;;;;;1.60;1.50;;;;;;;34.35;27.41;97838.69;5025275;28;20091;-79
2022/09/10 09:30:51;;;;;;;1.98;1.88;;;;;;;34.40;27.24;97827.28;5029380;28;20037;-80
2022/09/10 09:33:21;;;;;;;2.00;1.90;;;;;;;34.31;27.15;97829.59;5028243;28;20134;-80
2022/09/10 09:35:54;;;;;;;1.40;1.35;;;;;;;34.08;28.30;97832.31;5029852;28;20117;-80
2022/09/10 09:38:42;;;;;;;1.70;1.60;;;;;;;33.88;28.10;97835.25;5022565;28;20502;-79
2022/09/10 09:41:22;;;;;;;2.65;2.03;;;;;;;33.65;27.52;97835.59;5028362;28;20426;-79
2022/09/10 09:43:51;;;;;;;1.57;1.47;;;;;;;33.63;28.33;97835.31;5026661;28;20442;-78
2022/09/10 09:46:19;;;;;;;2.47;1.50;;;;;;;33.69;27.58;97827.59;5026731;28;20292;-78
2022/09/10 09:48:47;;;;;;;1.60;1.50;;;;;;;33.34;28.89;97839.97;5032317;28;20037;-79
2022/09/10 09:51:19;;;;;;;1.85;1.50;;;;;;;33.26;28.80;97833.16;5030100;28;20037;-79
2022/09/10 09:53:48;;;;;;;1.40;1.20;;;;;;;33.53;28.79;97837.56;5024182;28;20495;-79
2022/09/10 09:56:35;;;;;;;1.58;1.45;;;;;;;33.85;28.31;97824.09;5024139;28;20486;-80
2022/09/10 09:59:23;;;;;;;1.50;1.40;;;;;;;34.40;28.38;97820.81;5028736;28;20029;-81
2022/09/10 10:01:50;;;;;;;1.98;1.65;;;;;;;34.62;27.08;97824.56;5031735;28;20083;-79
2022/09/10 10:04:23;;;;;;;1.30;1.20;;;;;;;34.36;27.12;97821.06;5031652;28;20544;-81
2022/09/10 10:06:58;;;;;;;1.75;1.65;;;;;;;34.19;28.98;97823.06;5024050;28;20034;-80
2022/09/10 10:09:30;;;;;;;1.70;1.60;;;;;;;33.49;29.23;97819.91;5026639;28;20547;-79
2022/09/10 10:12:03;;;;;;;1.45;1.35;;;;;;;33.98;28.48;97807.34;5030525;28;20390;-80
2022/09/10 10:14:38;;;;;;;2.38;1.40;;;;;;;34.32;27.77;97814.03;5027548;28;20382;-81
2022/09/10 10:17:25;;;;;;;1.80;1.70;;;;;;;33.91;27.83;97791.50;5029576;28;20018;-81
2022/09/10 10:20:12;;;;;;;2.90;1.55;;;;;;;33.91;29.22;97813.53;5027200;28;20057;-80
2022/09/10 10:22:47;;;;;;;1.20;1.10;;;;;;;34.20;28.42;97810.34;5029317;28;20073;-79
2022/09/10 10:25:40;;;;;;;1.98;1.83;;;;;;;34.19;29.26;97803.09;5028445;28;20033;-80
2022/09/10 10:28:25;;;;;;;1.50;1.40;;;;;;;33.81;28.79;97803.59;5030889;28;20435;-80
2022/09/10 10:30:58;;;;;;;1.92;1.77;;;;;;;33.77;28.88;97800.97;5025000;28;20021;-80
2022/09/10 10:33:32;;;;;;;2.83;2.63;;;;;;;33.33;30.35;97812.78;5026782;28;20037;-80
2022/09/10 10:36:11;;;;;;;2.05;1.67;;;;;;;33.51;30.28;97810.84;5024534;28;20030;-80
2022/09/10 10:51:17;;;;;;;2.60;1.80;;;;;;;32.19;29.93;97805.22;5087741;27;20393;-79
2022/09/10 10:54:02;;;;;;;1.50;1.40;;;;;;;32.46;29.61;97801.97;5076944;28;20386;-80
2022/09/10 10:56:58;;;;;;;1.50;1.40;;;;;;;32.22;30.38;97815.59;5082681;28;20056;-81
2022/09/10 10:59:33;;;;;;;1.30;1.02;;;;;;;32.89;28.86;97808.69;5068770;28;20051;-80
2022/09/10 11:02:19;;;;;;;1.08;0.98;;;;;;;33.42;27.75;97809.75;5081865;28;20064;-80
2022/09/10 11:04:51;;;;;;;0.95;0.95;;;;;;;33.59;28.02;97809.91;5069891;28;20037;-79
2022/09/10 11:07:33;;;;;;;0.80;0.80;;;;;;;33.56;28.42;97807.31;5077799;28;20024;-80
2022/09/10 11:10:36;;;;;;;0.88;0.88;;;;;;;33.67;28.37;97810.25;5075070;28;20064;-80
2022/09/10 11:13:26;;;;;;;0.80;0.80;;;;;;;32.73;29.49;97810.06;5078181;28;20489;-80
2022/09/10 11:16:19;;;;;;;0.80;0.75;;;;;;;33.41;28.88;97811.03;5073471;28;20097;-79
2022/09/10 11:18:55;;;;;;;0.90;0.90;;;;;;;33.69;27.49;97801.97;5077966;28;20036;-80
2022/09/10 11:21:37;;;;;;;0.98;0.90;;;;;;;34.00;27.29;97805.53;5077042;28;20036;-80
2022/09/10 11:24:24;;;;;;;1.00;1.00;;;;;;;34.10;28.40;97797.59;5074223;28;20085;-80
2022/09/10 11:27:03;;;;;;;1.23;0.90;;;;;;;34.01;29.31;97804.25;5084263;28;20024;-80
2022/09/10 11:29:41;;;;;;;1.05;0.95;;;;;;;34.59;27.81;97804.84;5084488;28;20435;-80
2022/09/10 11:32:44;;;;;;;1.77;1.20;;;;;;;35.34;26.63;97798.28;5085061;28;20035;-80
2022/09/10 11:35:27;;;;;;;0.77;0.77;;;;;;;35.32;27.93;97790.25;5075368;28;20045;-81
2022/09/10 11:38:31;;;;;;;0.68;0.65;;;;;;;35.55;27.00;97790.25;5084611;28;20043;-81
2022/09/10 11:41:06;;;;;;;1.00;0.80;;;;;;;33.85;31.38;97790.69;5080285;28;20090;-81
2022/09/10 11:43:51;;;;;;;1.65;1.55;;;;;;;31.92;31.53;97787.28;5083489;28;20047;-81
2022/09/10 11:46:27;;;;;;;1.42;1.33;;;;;;;31.93;36.10;97783.16;5079426;28;20056;-81
2022/09/10 11:49:31;;;;;;;1.50;1.40;;;;;;;29.76;34.57;97780.34;5079654;28;20094;-82
2022/09/10 11:51:57;;;;;;;1.50;1.40;;;;;;;31.12;33.61;97782.13;5067528;28;20119;-81
2022/09/10 11:54:33;;;;;;;2.65;1.30;;;;;;;31.84;32.53;97771.94;5059288;28;20040;-80
2022/09/10 11:57:17;;;;;;;1.02;0.90;;;;;;;31.03;33.28;97776.53;5059153;28;20468;-81
2022/09/10 12:00:07;;;;;;;0.80;0.80;;;;;;;31.29;33.88;97780.34;5062167;28;21488;-80
2022/09/10 12:03:02;;;;;;;2.38;1.05;;;;;;;31.85;32.86;97782.03;5070474;28;20083;-80
2022/09/10 12:06:04;;;;;;;0.77;0.77;;;;;;;32.39;32.37;97771.94;5061449;28;20044;-81
2022/09/10 12:08:56;;;;;;;0.70;0.70;;;;;;;32.25;31.71;97766.31;5060478;28;20041;-80
2022/09/10 12:11:43;;;;;;;0.70;0.70;;;;;;;33.65;30.29;97762.34;5058623;28;20041;-80